createdAt,value
2022-11-02T00:01:47.980Z,9.30
2022-11-02T00:04:35.293Z,9.30
2022-11-02T00:07:23.964Z,9.30
2022-11-02T00:10:11.775Z,9.30
2022-11-02T00:12:59.216Z,9.30
2022-11-02T00:15:47.144Z,9.30
2022-11-02T00:18:35.774Z,9.30
2022-11-02T00:21:25.068Z,9.30
2022-11-02T00:24:14.724Z,9.30
2022-11-02T00:27:02.581Z,9.30
2022-11-02T00:29:50.484Z,9.20
2022-11-02T00:32:37.930Z,9.30
2022-11-02T00:35:24.700Z,9.30
2022-11-02T00:38:12.446Z,9.30
2022-11-02T00:41:00.898Z,9.30
2022-11-02T00:43:48.159Z,9.30
2022-11-02T00:46:35.661Z,9.40
2022-11-02T00:49:23.072Z,9.40
2022-11-02T00:52:10.730Z,9.40
2022-11-02T00:54:57.630Z,9.40
2022-11-02T00:57:46.363Z,9.30
2022-11-02T01:00:33.679Z,9.30
2022-11-02T01:03:20.929Z,9.30
2022-11-02T01:06:10.515Z,9.30
2022-11-02T01:08:57.829Z,9.20
2022-11-02T01:11:45.022Z,9.20
2022-11-02T01:14:35.355Z,9.30
2022-11-02T01:17:22.700Z,9.30
2022-11-02T01:20:11.183Z,9.30
2022-11-02T01:22:59.314Z,9.20
2022-11-02T01:25:46.959Z,9.30
2022-11-02T01:28:34.500Z,9.30
2022-11-02T01:31:23.422Z,9.30
2022-11-02T01:34:13.149Z,9.30
2022-11-02T01:37:00.306Z,9.40
2022-11-02T01:39:47.426Z,9.40
2022-11-02T01:42:34.681Z,9.30
2022-11-02T01:45:22.103Z,9.40
2022-11-02T01:48:10.836Z,9.40
2022-11-02T01:50:58.941Z,9.30
2022-11-02T01:53:48.851Z,9.30
2022-11-02T01:56:37.187Z,9.30
2022-11-02T01:59:28.803Z,9.30
2022-11-02T02:02:20.810Z,9.30
2022-11-02T02:05:11.755Z,9.20
2022-11-02T02:07:59.620Z,9.20
2022-11-02T02:10:46.883Z,9.20
2022-11-02T02:13:34.698Z,9.10
2022-11-02T02:16:29.886Z,9.10
2022-11-02T02:19:35.666Z,9.00
2022-11-02T02:22:42.944Z,9.00
2022-11-02T02:25:53.709Z,9.00
2022-11-02T02:28:48.693Z,9.00
2022-11-02T02:31:39.383Z,9.00
2022-11-02T02:34:31.631Z,9.00
2022-11-02T02:37:22.680Z,9.00
2022-11-02T02:40:16.600Z,9.00
2022-11-02T02:43:09.106Z,9.00
2022-11-02T02:46:01.849Z,9.00
2022-11-02T02:48:51.282Z,9.00
2022-11-02T02:51:39.057Z,9.00
2022-11-02T02:54:31.745Z,9.00
2022-11-02T02:57:21.832Z,9.00
2022-11-02T03:00:14.909Z,8.90
2022-11-02T03:03:05.478Z,8.90
2022-11-02T03:06:16.718Z,8.90
2022-11-02T03:09:15.803Z,8.90
2022-11-02T03:12:17.581Z,8.80
2022-11-02T03:15:14.325Z,8.80
2022-11-02T03:18:14.634Z,8.80
2022-11-02T03:21:08.730Z,8.80
2022-11-02T03:24:00.937Z,8.80
2022-11-02T03:26:55.434Z,8.80
2022-11-02T03:29:48.380Z,8.70
2022-11-02T03:32:41.180Z,8.70
2022-11-02T03:35:36.955Z,8.70
2022-11-02T03:38:33.265Z,8.60
2022-11-02T03:41:23.877Z,8.70
2022-11-02T03:44:15.736Z,8.60
2022-11-02T03:47:04.267Z,8.60
2022-11-02T03:49:53.635Z,8.60
2022-11-02T03:52:46.186Z,8.60
2022-11-02T03:55:37.640Z,8.60
2022-11-02T03:58:24.857Z,8.50
2022-11-02T04:01:13.249Z,8.50
2022-11-02T04:04:00.428Z,8.50
2022-11-02T04:06:49.697Z,8.50
2022-11-02T04:09:39.697Z,8.50
2022-11-02T04:12:44.126Z,8.50
2022-11-02T04:15:31.044Z,8.60
2022-11-02T04:18:35.717Z,8.60
2022-11-02T04:21:23.075Z,8.50
2022-11-02T04:24:27.843Z,8.50
2022-11-02T04:27:20.506Z,8.50
2022-11-02T04:30:09.655Z,8.40
2022-11-02T04:33:14.839Z,8.40
2022-11-02T04:36:09.996Z,8.40
2022-11-02T04:38:58.592Z,8.50
2022-11-02T04:41:48.493Z,8.40
2022-11-02T04:44:37.168Z,8.10
2022-11-02T04:47:29.119Z,8.40
2022-11-02T04:50:16.824Z,8.40
2022-11-02T04:53:07.003Z,8.40
2022-11-02T04:55:54.182Z,8.40
2022-11-02T04:58:41.664Z,8.40
2022-11-02T05:01:31.222Z,8.30
2022-11-02T05:04:20.265Z,8.40
2022-11-02T05:07:09.908Z,8.20
2022-11-02T05:09:57.394Z,8.30
2022-11-02T05:12:45.286Z,8.30
2022-11-02T05:15:33.861Z,8.20
2022-11-02T05:18:25.080Z,8.30
2022-11-02T05:21:13.353Z,8.30
2022-11-02T05:24:00.475Z,8.30
2022-11-02T05:26:52.960Z,8.30
2022-11-02T05:29:42.707Z,8.20
2022-11-02T05:32:31.090Z,8.20
2022-11-02T05:35:20.395Z,8.20
2022-11-02T05:38:07.548Z,8.30
2022-11-02T05:40:55.563Z,8.20
2022-11-02T05:43:43.454Z,8.20
2022-11-02T05:46:33.498Z,8.30
2022-11-02T05:49:20.864Z,8.30
2022-11-02T05:52:09.360Z,8.20
2022-11-02T05:54:56.637Z,8.20
2022-11-02T05:57:43.923Z,8.20
2022-11-02T06:00:31.113Z,8.20
2022-11-02T06:03:18.423Z,8.30
2022-11-02T06:06:07.653Z,8.30
2022-11-02T06:08:56.135Z,8.30
2022-11-02T06:11:43.427Z,8.30
2022-11-02T06:14:30.617Z,8.40
2022-11-02T06:17:17.972Z,8.30
2022-11-02T06:20:05.988Z,8.30
2022-11-02T06:22:53.230Z,8.40
2022-11-02T06:25:41.945Z,8.40
2022-11-02T06:28:30.818Z,8.40
2022-11-02T06:31:18.266Z,8.30
2022-11-02T06:34:05.536Z,8.40
2022-11-02T06:36:52.738Z,8.40
2022-11-02T06:39:39.920Z,8.50
2022-11-02T06:42:28.594Z,8.40
2022-11-02T06:45:15.771Z,8.50
2022-11-02T06:48:03.100Z,8.50
2022-11-02T06:50:50.410Z,8.50
2022-11-02T06:53:37.621Z,8.50
2022-11-02T06:56:25.066Z,8.60
2022-11-02T06:59:13.829Z,8.60
2022-11-02T07:02:01.259Z,8.70
2022-11-02T07:04:48.733Z,8.70
2022-11-02T07:07:36.139Z,8.70
2022-11-02T07:10:23.557Z,8.70
2022-11-02T07:13:10.487Z,8.70
2022-11-02T07:15:59.005Z,8.80
2022-11-02T07:18:46.233Z,8.90
2022-11-02T07:21:33.594Z,8.90
2022-11-02T07:24:20.712Z,9.00
2022-11-02T07:27:07.944Z,9.00
2022-11-02T07:29:55.289Z,9.10
2022-11-02T07:32:43.850Z,9.20
2022-11-02T07:35:31.136Z,9.30
2022-11-02T07:38:18.475Z,9.30
2022-11-02T07:41:06.195Z,9.50
2022-11-02T07:43:53.160Z,9.60
2022-11-02T07:46:52.596Z,9.70
2022-11-02T07:49:41.211Z,9.80
2022-11-02T07:52:28.487Z,9.90
2022-11-02T07:55:16.927Z,10.00
2022-11-02T07:58:05.856Z,10.10
2022-11-02T08:00:59.473Z,10.30
2022-11-02T08:03:46.897Z,10.50
2022-11-02T08:06:35.942Z,10.60
2022-11-02T08:09:23.134Z,10.70
2022-11-02T08:12:10.508Z,10.90
2022-11-02T08:14:59.001Z,11.00
2022-11-02T08:17:48.295Z,11.10
2022-11-02T08:20:37.199Z,11.10
2022-11-02T08:23:26.717Z,11.00
2022-11-02T08:26:13.725Z,11.10
2022-11-02T08:29:01.112Z,11.20
2022-11-02T08:31:49.370Z,11.20
2022-11-02T08:34:36.693Z,11.30
2022-11-02T08:37:24.017Z,11.30
2022-11-02T08:40:13.536Z,11.50
2022-11-02T08:43:01.883Z,11.40
2022-11-02T08:48:55.626Z,11.50
2022-11-02T08:51:42.851Z,11.40
2022-11-02T08:54:30.076Z,11.40
2022-11-02T08:57:18.605Z,11.40
2022-11-02T09:00:06.757Z,11.40
2022-11-02T09:03:01.770Z,11.40
2022-11-02T09:05:49.183Z,11.50
2022-11-02T09:08:36.241Z,11.60
2022-11-02T09:11:23.481Z,11.60
2022-11-02T09:14:12.266Z,11.90
2022-11-02T09:16:59.314Z,12.70
2022-11-02T09:19:46.648Z,13.20
2022-11-02T09:22:33.783Z,12.90
2022-11-02T09:25:21.173Z,13.30
2022-11-02T09:28:09.301Z,13.50
2022-11-02T09:30:58.110Z,13.90
2022-11-02T09:33:45.259Z,14.20
2022-11-02T09:36:32.173Z,14.60
2022-11-02T09:39:19.077Z,14.70
2022-11-02T09:42:18.935Z,14.90
2022-11-02T09:45:08.973Z,15.30
2022-11-02T09:48:24.992Z,15.70
2022-11-02T09:51:13.026Z,15.20
2022-11-02T09:54:10.453Z,15.50
2022-11-02T09:57:05.408Z,15.50
2022-11-02T09:59:52.434Z,15.40
2022-11-02T10:02:51.906Z,15.50
2022-11-02T10:05:46.145Z,15.10
2022-11-02T10:08:42.330Z,15.20
2022-11-02T10:11:43.493Z,15.10
2022-11-02T10:14:33.955Z,14.90
2022-11-02T10:17:24.099Z,15.00
2022-11-02T10:20:23.718Z,15.00
2022-11-02T10:23:20.848Z,14.90
2022-11-02T10:26:13.984Z,14.90
2022-11-02T10:29:05.403Z,14.70
2022-11-02T10:31:52.745Z,14.80
2022-11-02T10:34:41.337Z,14.80
2022-11-02T10:37:46.776Z,15.00
2022-11-02T10:40:47.475Z,14.80
2022-11-02T10:43:51.908Z,15.10
2022-11-02T10:46:47.073Z,15.10
2022-11-02T10:49:58.912Z,15.20
2022-11-02T10:52:47.403Z,15.20
2022-11-02T10:55:44.244Z,15.20
2022-11-02T10:58:34.684Z,15.30
2022-11-02T11:01:21.970Z,15.10
2022-11-02T11:04:22.109Z,15.30
2022-11-02T11:07:15.785Z,15.30
2022-11-02T11:10:03.336Z,15.40
2022-11-02T11:12:52.049Z,15.40
2022-11-02T11:15:46.465Z,15.40
2022-11-02T11:21:42.597Z,15.40
2022-11-02T11:24:31.538Z,15.40
2022-11-02T11:27:20.627Z,15.30
2022-11-02T11:30:54.058Z,15.20
2022-11-02T11:33:34.322Z,15.00
2022-11-02T11:39:25.357Z,15.00
2022-11-02T11:42:18.789Z,15.00
2022-11-02T11:45:18.941Z,14.90
2022-11-02T11:48:20.917Z,14.90
2022-11-02T11:51:27.779Z,15.00
2022-11-02T11:54:25.563Z,15.20
2022-11-02T11:57:25.920Z,15.00
2022-11-02T12:00:29.001Z,15.00
2022-11-02T12:03:16.322Z,15.00
2022-11-02T12:06:13.817Z,14.90
2022-11-02T12:09:07.700Z,14.90
2022-11-02T12:12:00.418Z,14.80
2022-11-02T12:15:00.333Z,14.70
2022-11-02T12:18:08.025Z,14.80
2022-11-02T12:21:06.913Z,14.80
2022-11-02T12:24:13.179Z,14.90
2022-11-02T12:27:10.099Z,14.90
2022-11-02T12:30:11.978Z,14.90
2022-11-02T12:33:16.504Z,14.90
2022-11-02T12:36:13.422Z,14.80
2022-11-02T12:39:08.075Z,14.70
2022-11-02T12:42:08.471Z,14.70
2022-11-02T12:45:09.477Z,14.60
2022-11-02T12:47:59.464Z,14.60
2022-11-02T12:50:58.921Z,14.50
2022-11-02T12:53:49.995Z,14.50
2022-11-02T12:56:44.854Z,14.60
2022-11-02T12:59:34.350Z,14.60
2022-11-02T13:02:25.394Z,14.60
2022-11-02T13:05:17.641Z,14.50
2022-11-02T13:08:15.670Z,14.50
2022-11-02T13:11:07.354Z,14.60
2022-11-02T13:13:58.413Z,14.60
2022-11-02T13:16:50.143Z,14.50
2022-11-02T13:19:41.081Z,14.70
2022-11-02T13:22:34.426Z,14.70
2022-11-02T13:25:28.577Z,14.80
2022-11-02T13:28:20.380Z,14.70
2022-11-02T13:31:15.291Z,14.70
2022-11-02T13:34:06.170Z,14.60
2022-11-02T13:36:53.157Z,14.60
2022-11-02T13:39:43.362Z,14.60
2022-11-02T13:43:05.256Z,14.60
2022-11-02T13:46:23.837Z,14.70
2022-11-02T13:49:16.868Z,14.70
2022-11-02T13:52:10.678Z,14.60
2022-11-02T13:55:03.590Z,14.70
2022-11-02T13:57:56.347Z,14.60
2022-11-02T14:00:46.109Z,14.50
2022-11-02T14:03:43.516Z,14.40
2022-11-02T14:06:34.541Z,14.40
2022-11-02T14:09:30.331Z,14.40
2022-11-02T14:12:29.480Z,14.40
2022-11-02T14:15:42.561Z,14.30
2022-11-02T14:18:31.843Z,14.30
2022-11-02T14:21:42.027Z,14.30
2022-11-02T14:24:55.492Z,14.20
2022-11-02T14:27:42.456Z,14.30
2022-11-02T14:30:48.681Z,14.40
2022-11-02T14:33:54.497Z,14.30
2022-11-02T14:36:53.958Z,14.30
2022-11-02T14:39:49.440Z,14.40
2022-11-02T14:42:53.060Z,14.40
2022-11-02T14:46:09.867Z,14.50
2022-11-02T14:49:00.371Z,14.40
2022-11-02T14:52:02.526Z,14.30
2022-11-02T14:54:54.447Z,14.30
2022-11-02T14:57:44.791Z,14.20
2022-11-02T15:00:37.873Z,14.10
2022-11-02T15:03:35.690Z,14.00
2022-11-02T15:06:25.516Z,14.00
2022-11-02T15:09:12.563Z,13.90
2022-11-02T15:12:02.144Z,13.80
2022-11-02T15:14:55.934Z,13.80
2022-11-02T15:17:54.419Z,13.80
2022-11-02T15:20:46.237Z,13.80
2022-11-02T15:26:43.693Z,13.60
2022-11-02T15:29:38.443Z,13.50
2022-11-02T15:32:27.978Z,13.60
2022-11-02T15:35:19.127Z,13.50
2022-11-02T15:38:17.419Z,13.50
2022-11-02T15:41:16.136Z,13.40
2022-11-02T15:44:25.897Z,13.40
2022-11-02T15:47:21.408Z,13.30
2022-11-02T15:50:21.350Z,13.30
2022-11-02T15:53:26.582Z,13.20
2022-11-02T15:56:33.875Z,13.20
2022-11-02T15:59:39.078Z,13.10
2022-11-02T16:02:28.753Z,13.00
2022-11-02T16:05:23.437Z,13.00
2022-11-02T16:08:24.954Z,12.80
2022-11-02T16:11:17.207Z,12.90
2022-11-02T16:14:17.755Z,12.90
2022-11-02T16:17:04.794Z,12.90
2022-11-02T16:19:53.043Z,12.80
2022-11-02T16:22:41.222Z,12.70
2022-11-02T16:25:39.704Z,12.70
2022-11-02T16:28:28.945Z,12.60
2022-11-02T16:31:19.742Z,12.50
2022-11-02T16:34:21.861Z,12.50
2022-11-02T16:37:13.779Z,12.50
2022-11-02T16:40:00.953Z,12.40
2022-11-02T16:42:52.723Z,12.40
2022-11-02T16:45:43.801Z,12.40
2022-11-02T16:48:32.994Z,12.40
2022-11-02T16:51:20.376Z,12.30
2022-11-02T16:54:27.813Z,12.30
2022-11-02T16:57:19.372Z,12.30
2022-11-02T17:00:17.569Z,12.20
2022-11-02T17:03:09.823Z,12.10
2022-11-02T17:05:58.777Z,12.00
2022-11-02T17:08:52.804Z,12.00
2022-11-02T17:11:42.844Z,12.00
2022-11-02T17:14:30.370Z,11.90
2022-11-02T17:17:35.877Z,11.90
2022-11-02T17:20:24.389Z,11.80
2022-11-02T17:23:30.068Z,11.80
2022-11-02T17:26:29.648Z,11.80
2022-11-02T17:29:34.899Z,11.70
2022-11-02T17:32:22.624Z,11.70
2022-11-02T17:35:16.772Z,11.70
2022-11-02T17:38:04.624Z,11.60
2022-11-02T17:40:52.375Z,11.50
2022-11-02T17:43:38.355Z,11.40
2022-11-02T17:46:25.663Z,11.40
2022-11-02T17:49:12.710Z,11.30
2022-11-02T17:52:01.405Z,11.10
2022-11-02T17:54:48.570Z,11.10
2022-11-02T17:57:35.743Z,11.10
2022-11-02T18:00:23.477Z,11.10
2022-11-02T18:03:15.980Z,11.10
2022-11-02T18:06:03.264Z,11.10
2022-11-02T18:09:09.072Z,11.00
2022-11-02T18:11:56.055Z,11.00
2022-11-02T18:14:43.561Z,10.90
2022-11-02T18:17:34.748Z,10.80
2022-11-02T18:20:21.912Z,10.70
2022-11-02T18:23:14.880Z,10.70
2022-11-02T18:26:03.148Z,10.60
2022-11-02T18:28:50.424Z,10.60
2022-11-02T18:31:37.666Z,10.50
2022-11-02T18:34:25.010Z,10.60
2022-11-02T18:37:12.249Z,10.60
2022-11-02T18:39:59.670Z,10.50
2022-11-02T18:42:48.274Z,10.50
2022-11-02T18:45:36.326Z,10.50
2022-11-02T18:48:23.407Z,10.40
2022-11-02T18:51:11.007Z,10.40
2022-11-02T18:54:00.403Z,10.30
2022-11-02T18:56:47.783Z,10.20
2022-11-02T18:59:36.861Z,10.20
2022-11-02T19:02:24.560Z,10.10
2022-11-02T19:05:25.887Z,10.10
2022-11-02T19:08:30.144Z,10.00
2022-11-02T19:11:17.157Z,9.90
2022-11-02T19:14:05.041Z,9.80
2022-11-02T19:16:53.684Z,9.70
2022-11-02T19:19:43.131Z,9.60
2022-11-02T19:22:30.202Z,9.60
2022-11-02T19:25:17.532Z,9.50
2022-11-02T19:28:05.382Z,9.40
2022-11-02T19:30:52.385Z,9.40
2022-11-02T19:33:41.081Z,9.30
2022-11-02T19:36:28.343Z,9.30
2022-11-02T19:39:15.647Z,9.10
2022-11-02T19:42:03.400Z,9.10
2022-11-02T19:44:50.565Z,9.00
2022-11-02T19:47:37.845Z,8.80
2022-11-02T19:50:26.343Z,8.80
2022-11-02T19:53:13.552Z,8.70
2022-11-02T19:56:00.695Z,8.70
2022-11-02T19:58:49.525Z,8.70
2022-11-02T20:01:38.748Z,8.60
2022-11-02T20:04:25.601Z,8.60
2022-11-02T20:07:14.360Z,8.60
2022-11-02T20:10:01.731Z,8.50
2022-11-02T20:12:49.382Z,8.50
2022-11-02T20:15:40.425Z,8.50
2022-11-02T20:18:27.792Z,8.50
2022-11-02T20:21:16.615Z,8.50
2022-11-02T20:24:05.703Z,8.40
2022-11-02T20:26:56.093Z,8.30
2022-11-02T20:29:42.938Z,8.30
2022-11-02T20:32:30.743Z,8.20
2022-11-02T20:35:22.721Z,8.30
2022-11-02T20:38:10.025Z,8.30
2022-11-02T20:41:06.951Z,8.30
2022-11-02T20:43:55.721Z,8.30
2022-11-02T20:46:52.727Z,8.30
2022-11-02T20:49:55.966Z,8.20
2022-11-02T20:52:43.053Z,8.10
2022-11-02T20:55:30.528Z,8.10
2022-11-02T20:58:19.008Z,8.00
2022-11-02T21:01:06.551Z,7.90
2022-11-02T21:03:53.628Z,8.00
2022-11-02T21:06:40.894Z,8.00
2022-11-02T21:09:30.189Z,8.00
2022-11-02T21:12:34.708Z,8.00
2022-11-02T21:15:23.057Z,7.90
2022-11-02T21:18:10.034Z,7.90
2022-11-02T21:20:57.061Z,7.80
2022-11-02T21:23:45.107Z,7.80
2022-11-02T21:26:32.432Z,7.80
2022-11-02T21:29:19.619Z,7.80
2022-11-02T21:32:08.693Z,7.70
2022-11-02T21:34:55.853Z,7.70
2022-11-02T21:37:43.144Z,7.60
2022-11-02T21:40:30.351Z,7.70
2022-11-02T21:43:18.139Z,7.70
2022-11-02T21:46:07.208Z,7.70
2022-11-02T21:48:56.267Z,7.80
2022-11-02T21:51:43.714Z,7.80
2022-11-02T21:54:30.981Z,7.70
2022-11-02T21:57:18.209Z,7.60
2022-11-02T22:00:05.614Z,7.60
2022-11-02T22:02:58.745Z,7.50
2022-11-02T22:05:57.231Z,7.50
2022-11-02T22:08:44.787Z,7.40
2022-11-02T22:11:32.032Z,7.40
2022-11-02T22:14:19.026Z,7.30
2022-11-02T22:17:16.713Z,7.20
2022-11-02T22:20:14.113Z,7.20
2022-11-02T22:23:02.653Z,7.10
2022-11-02T22:25:49.691Z,7.00
2022-11-02T22:28:39.386Z,7.00
2022-11-02T22:31:28.719Z,7.00
2022-11-02T22:34:17.111Z,7.10
2022-11-02T22:37:18.059Z,7.00
2022-11-02T22:40:07.257Z,7.00
2022-11-02T22:42:55.199Z,7.00
2022-11-02T22:45:42.898Z,7.00
2022-11-02T22:48:30.148Z,7.00
2022-11-02T22:51:19.038Z,6.90
2022-11-02T22:54:07.810Z,6.90
2022-11-02T22:56:56.673Z,6.90
2022-11-02T22:59:43.533Z,6.80
2022-11-02T23:02:30.827Z,6.70
2022-11-02T23:05:18.177Z,6.70
2022-11-02T23:08:05.953Z,6.70
2022-11-02T23:11:13.457Z,6.50
2022-11-02T23:14:03.320Z,6.50
2022-11-02T23:16:50.222Z,6.50
2022-11-02T23:19:38.193Z,6.30
2022-11-02T23:22:42.991Z,6.30
2022-11-02T23:25:30.018Z,6.20
2022-11-02T23:28:34.708Z,6.20
2022-11-02T23:31:40.473Z,6.20
2022-11-02T23:34:27.593Z,6.10
2022-11-02T23:37:13.837Z,6.10
2022-11-02T23:40:00.902Z,6.20
2022-11-02T23:42:48.333Z,6.10
2022-11-02T23:45:35.777Z,6.00
2022-11-02T23:48:24.363Z,6.00
2022-11-02T23:51:29.781Z,5.90
2022-11-02T23:54:34.185Z,5.80
2022-11-02T23:57:22.461Z,5.60
